createdAt,value
2023-06-14T00:00:17.072Z,178.94
2023-06-14T00:01:16.796Z,176.76
2023-06-14T00:02:16.821Z,180.20
2023-06-14T00:03:16.790Z,176.15
2023-06-14T00:04:16.784Z,180.33
2023-06-14T00:05:16.754Z,181.07
2023-06-14T00:06:16.749Z,179.82
2023-06-14T00:07:16.757Z,181.85
2023-06-14T00:08:16.727Z,179.49
2023-06-14T00:09:16.716Z,184.28
2023-06-14T00:10:17.004Z,179.53
2023-06-14T00:11:16.730Z,179.32
2023-06-14T00:12:16.692Z,179.06
2023-06-14T00:13:16.706Z,178.18
2023-06-14T00:14:16.684Z,177.17
2023-06-14T00:15:16.691Z,178.40
2023-06-14T00:16:16.709Z,175.49
2023-06-14T00:17:16.708Z,173.04
2023-06-14T00:18:16.664Z,173.63
2023-06-14T00:19:16.664Z,178.18
2023-06-14T00:20:16.885Z,175.74
2023-06-14T00:21:16.671Z,178.20
2023-06-14T00:22:16.626Z,181.64
2023-06-14T00:23:16.614Z,177.41
2023-06-14T00:24:16.754Z,175.39
2023-06-14T00:25:28.872Z,175.04
2023-06-14T00:26:17.634Z,175.10
2023-06-14T00:27:16.625Z,175.07
2023-06-14T00:28:16.598Z,175.08
2023-06-14T00:29:16.602Z,175.63
2023-06-14T00:30:16.729Z,176.74
2023-06-14T00:31:16.578Z,175.53
2023-06-14T00:32:16.657Z,175.52
2023-06-14T00:33:16.661Z,178.02
2023-06-14T00:34:16.583Z,178.48
2023-06-14T00:35:16.552Z,179.02
2023-06-14T00:36:16.554Z,176.18
2023-06-14T00:37:16.538Z,177.95
2023-06-14T00:38:16.570Z,175.86
2023-06-14T00:39:16.550Z,176.61
2023-06-14T00:40:16.714Z,175.41
2023-06-14T00:41:16.531Z,180.27
2023-06-14T00:42:16.528Z,176.55
2023-06-14T00:43:16.499Z,179.96
2023-06-14T00:44:16.508Z,177.90
2023-06-14T00:45:16.507Z,177.20
2023-06-14T00:46:16.554Z,174.81
2023-06-14T00:47:16.473Z,176.11
2023-06-14T00:48:16.495Z,173.23
2023-06-14T00:49:16.457Z,178.15
2023-06-14T00:50:16.563Z,182.20
2023-06-14T00:51:16.467Z,181.75
2023-06-14T00:52:16.457Z,180.39
2023-06-14T00:53:16.432Z,180.32
2023-06-14T00:54:16.432Z,175.47
2023-06-14T00:55:16.458Z,180.19
2023-06-14T00:56:16.457Z,174.54
2023-06-14T00:57:16.492Z,176.93
2023-06-14T00:58:16.504Z,172.82
2023-06-14T00:59:16.556Z,173.33
2023-06-14T01:00:16.823Z,175.67
2023-06-14T01:01:16.540Z,175.10
2023-06-14T01:02:16.588Z,174.64
2023-06-14T01:03:16.610Z,176.69
2023-06-14T01:04:16.624Z,173.16
2023-06-14T01:05:16.570Z,178.63
2023-06-14T01:06:16.615Z,176.38
2023-06-14T01:07:16.614Z,179.03
2023-06-14T01:08:16.638Z,173.88
2023-06-14T01:09:16.645Z,177.82
2023-06-14T01:10:16.938Z,180.39
2023-06-14T01:11:16.693Z,180.71
2023-06-14T01:12:16.683Z,181.78
2023-06-14T01:13:16.688Z,181.49
2023-06-14T01:14:16.747Z,179.50
2023-06-14T01:15:16.751Z,179.12
2023-06-14T01:16:16.790Z,180.53
2023-06-14T01:17:16.771Z,177.82
2023-06-14T01:18:16.766Z,183.67
2023-06-14T01:19:16.797Z,187.01
2023-06-14T01:20:16.816Z,185.74
2023-06-14T01:21:16.840Z,188.54
2023-06-14T01:22:16.847Z,191.70
2023-06-14T01:23:16.867Z,194.28
2023-06-14T01:24:16.950Z,190.10
2023-06-14T01:25:16.914Z,191.34
2023-06-14T01:26:16.924Z,198.98
2023-06-14T01:27:16.976Z,198.00
2023-06-14T01:28:16.975Z,192.65
2023-06-14T01:29:16.979Z,195.85
2023-06-14T01:30:17.275Z,199.27
2023-06-14T01:31:17.012Z,197.38
2023-06-14T01:32:17.017Z,194.91
2023-06-14T01:33:17.042Z,193.41
2023-06-14T01:34:17.072Z,197.80
2023-06-14T01:35:17.222Z,192.60
2023-06-14T01:36:17.096Z,190.65
2023-06-14T01:37:17.101Z,192.52
2023-06-14T01:38:17.122Z,191.18
2023-06-14T01:39:17.150Z,186.62
2023-06-14T01:40:17.547Z,192.34
2023-06-14T01:41:17.174Z,188.58
2023-06-14T01:42:17.189Z,187.67
2023-06-14T01:43:17.190Z,191.68
2023-06-14T01:44:17.218Z,192.82
2023-06-14T01:45:17.230Z,195.74
2023-06-14T01:46:17.284Z,194.06
2023-06-14T01:47:17.272Z,194.72
2023-06-14T01:48:17.288Z,194.61
2023-06-14T01:49:17.309Z,195.05
2023-06-14T01:50:17.559Z,196.86
2023-06-14T01:51:17.326Z,198.66
2023-06-14T01:52:17.360Z,200.26
2023-06-14T01:53:17.381Z,196.88
2023-06-14T01:54:17.405Z,192.52
2023-06-14T01:55:17.437Z,196.43
2023-06-14T01:56:17.445Z,195.83
2023-06-14T01:57:17.462Z,197.90
2023-06-14T01:58:17.489Z,197.31
2023-06-14T01:59:17.495Z,196.28
2023-06-14T02:00:17.735Z,200.28
2023-06-14T02:01:17.650Z,197.90
2023-06-14T02:02:17.574Z,199.17
2023-06-14T02:03:17.577Z,201.64
2023-06-14T02:04:17.600Z,203.97
2023-06-14T02:05:17.698Z,204.90
2023-06-14T02:06:17.657Z,198.60
2023-06-14T02:07:17.750Z,200.66
2023-06-14T02:08:17.681Z,200.64
2023-06-14T02:09:17.700Z,196.49
2023-06-14T02:10:17.899Z,197.84
2023-06-14T02:11:17.770Z,199.67
2023-06-14T02:12:17.788Z,195.06
2023-06-14T02:13:17.823Z,199.81
2023-06-14T02:14:17.830Z,202.55
2023-06-14T02:15:17.895Z,203.97
2023-06-14T02:16:17.907Z,202.83
2023-06-14T02:17:17.918Z,204.55
2023-06-14T02:18:17.941Z,204.27
2023-06-14T02:19:17.968Z,204.49
2023-06-14T02:20:18.131Z,206.88
2023-06-14T02:21:18.025Z,204.53
2023-06-14T02:22:18.050Z,199.92
2023-06-14T02:23:18.088Z,206.10
2023-06-14T02:24:18.152Z,205.51
2023-06-14T02:25:18.153Z,203.76
2023-06-14T02:26:18.160Z,207.46
2023-06-14T02:27:18.177Z,210.07
2023-06-14T02:28:18.207Z,210.97
2023-06-14T02:29:18.234Z,210.22
2023-06-14T02:30:18.533Z,207.02
2023-06-14T02:31:18.321Z,210.73
2023-06-14T02:32:18.315Z,215.49
2023-06-14T02:33:18.358Z,209.72
2023-06-14T02:34:18.388Z,214.13
2023-06-14T02:35:18.432Z,210.61
2023-06-14T02:36:18.462Z,214.69
2023-06-14T02:37:18.525Z,213.37
2023-06-14T02:38:18.523Z,217.63
2023-06-14T02:39:18.535Z,215.31
2023-06-14T02:40:18.830Z,219.65
2023-06-14T02:41:18.604Z,218.86
2023-06-14T02:42:18.633Z,215.51
2023-06-14T02:43:18.686Z,216.68
2023-06-14T02:44:18.690Z,220.04
2023-06-14T02:45:18.729Z,221.08
2023-06-14T02:46:18.761Z,218.43
2023-06-14T02:47:18.828Z,219.62
2023-06-14T02:48:18.880Z,216.56
2023-06-14T02:49:18.870Z,220.04
2023-06-14T02:50:18.899Z,220.29
2023-06-14T02:51:18.915Z,219.58
2023-06-14T02:52:18.943Z,220.80
2023-06-14T02:53:19.028Z,223.52
2023-06-14T02:54:19.027Z,220.69
2023-06-14T02:55:19.042Z,219.13
2023-06-14T02:56:19.088Z,223.04
2023-06-14T02:57:19.121Z,222.59
2023-06-14T02:58:19.166Z,220.75
2023-06-14T02:59:19.176Z,224.59
2023-06-14T03:00:19.527Z,217.03
2023-06-14T03:01:19.339Z,220.33
2023-06-14T03:02:19.312Z,222.25
2023-06-14T03:03:19.444Z,222.13
2023-06-14T03:04:19.387Z,222.04
2023-06-14T03:05:19.427Z,222.08
2023-06-14T03:06:19.451Z,222.90
2023-06-14T03:07:19.493Z,226.19
2023-06-14T03:08:19.557Z,225.88
2023-06-14T03:09:19.585Z,225.87
2023-06-14T03:10:19.653Z,225.26
2023-06-14T03:11:19.657Z,221.94
2023-06-14T03:12:19.692Z,225.37
2023-06-14T03:13:19.731Z,229.10
2023-06-14T03:14:19.779Z,228.18
2023-06-14T03:15:19.800Z,231.23
2023-06-14T03:16:19.878Z,228.22
2023-06-14T03:17:19.878Z,227.74
2023-06-14T03:18:19.927Z,229.26
2023-06-14T03:19:19.961Z,230.11
2023-06-14T03:20:19.997Z,228.46
2023-06-14T03:21:20.033Z,231.47
2023-06-14T03:22:20.077Z,231.82
2023-06-14T03:23:20.132Z,231.92
2023-06-14T03:24:20.179Z,232.00
2023-06-14T03:25:20.202Z,233.61
2023-06-14T03:26:20.247Z,234.00
2023-06-14T03:27:20.260Z,236.94
2023-06-14T03:28:20.302Z,233.66
2023-06-14T03:29:20.376Z,237.55
2023-06-14T03:30:20.406Z,238.64
2023-06-14T03:31:20.631Z,238.66
2023-06-14T03:32:20.461Z,233.31
2023-06-14T03:33:20.484Z,238.40
2023-06-14T03:34:20.525Z,234.57
2023-06-14T03:35:20.581Z,234.08
2023-06-14T03:36:20.621Z,236.02
2023-06-14T03:37:20.646Z,237.20
2023-06-14T03:38:20.700Z,240.85
2023-06-14T03:39:20.733Z,241.70
2023-06-14T03:40:20.776Z,241.78
2023-06-14T03:41:20.821Z,244.30
2023-06-14T03:42:20.865Z,245.66
2023-06-14T03:43:20.942Z,244.27
2023-06-14T03:44:20.953Z,244.68
2023-06-14T03:45:20.983Z,244.71
2023-06-14T03:46:21.034Z,245.65
2023-06-14T03:47:21.162Z,244.67
2023-06-14T03:48:21.194Z,244.26
2023-06-14T03:49:21.155Z,245.45
2023-06-14T03:50:21.171Z,245.49
2023-06-14T03:51:21.229Z,245.59
2023-06-14T03:52:21.258Z,243.86
2023-06-14T03:53:21.283Z,242.75
2023-06-14T03:56:21.322Z,249.77
2023-06-14T03:57:21.305Z,250.18
2023-06-14T03:58:21.286Z,248.98
2023-06-14T03:59:21.307Z,251.65
2023-06-14T04:00:21.289Z,252.48
2023-06-14T04:01:21.270Z,249.37
2023-06-14T04:02:21.394Z,247.79
2023-06-14T04:03:21.341Z,245.95
2023-06-14T04:04:21.260Z,247.58
2023-06-14T04:05:21.275Z,246.71
2023-06-14T04:06:21.248Z,248.64
2023-06-14T04:07:21.250Z,243.88
2023-06-14T04:08:21.229Z,246.79
2023-06-14T04:09:21.231Z,247.08
2023-06-14T04:10:21.239Z,246.97
2023-06-14T04:11:21.211Z,244.02
2023-06-14T04:12:21.210Z,247.76
2023-06-14T04:13:21.202Z,246.96
2023-06-14T04:14:21.228Z,247.34
2023-06-14T04:15:22.123Z,247.30
2023-06-14T04:16:21.201Z,248.52
2023-06-14T04:17:21.197Z,248.19
2023-06-14T04:18:23.964Z,248.20
2023-06-14T04:19:21.174Z,247.88
2023-06-14T04:20:21.161Z,248.22
2023-06-14T04:21:21.165Z,248.51
2023-06-14T04:22:21.137Z,248.43
2023-06-14T04:23:21.125Z,247.74
2023-06-14T04:24:21.144Z,248.87
2023-06-14T04:25:23.978Z,248.24
2023-06-14T04:26:21.130Z,248.27
2023-06-14T04:27:21.102Z,247.69
2023-06-14T04:28:21.114Z,244.82
2023-06-14T04:29:21.093Z,241.07
2023-06-14T04:30:21.076Z,244.42
2023-06-14T04:31:21.076Z,245.63
2023-06-14T04:32:21.122Z,246.99
2023-06-14T04:33:21.153Z,245.95
2023-06-14T04:34:21.060Z,247.21
2023-06-14T04:35:21.038Z,246.62
2023-06-14T04:36:21.068Z,248.01
2023-06-14T04:37:21.029Z,245.08
2023-06-14T04:38:21.032Z,250.00
2023-06-14T04:39:21.020Z,246.70
2023-06-14T04:40:21.016Z,247.01
2023-06-14T04:41:21.023Z,249.65
2023-06-14T04:42:21.014Z,248.30
2023-06-14T04:43:21.021Z,243.84
2023-06-14T04:44:20.993Z,238.00
2023-06-14T04:45:21.000Z,226.66
2023-06-14T04:46:21.013Z,222.56
2023-06-14T04:47:20.981Z,220.42
2023-06-14T04:48:20.972Z,220.23
2023-06-14T04:49:20.986Z,220.84
2023-06-14T04:50:20.960Z,225.02
2023-06-14T04:51:20.945Z,229.28
2023-06-14T04:52:20.954Z,233.28
2023-06-14T04:53:20.931Z,230.21
2023-06-14T04:54:20.944Z,235.24
2023-06-14T04:55:20.947Z,234.73
2023-06-14T04:56:20.915Z,238.67
2023-06-14T04:57:20.918Z,239.39
2023-06-14T04:58:20.907Z,238.12
2023-06-14T04:59:20.903Z,236.21
2023-06-14T05:00:20.890Z,234.06
2023-06-14T05:01:20.969Z,236.59
2023-06-14T05:02:20.952Z,238.22
2023-06-14T05:03:20.964Z,237.65
2023-06-14T05:04:20.872Z,236.16
2023-06-14T05:05:20.874Z,237.43
2023-06-14T05:06:20.886Z,238.42
2023-06-14T05:07:20.847Z,241.74
2023-06-14T05:08:20.838Z,242.11
2023-06-14T05:09:20.848Z,241.59
2023-06-14T05:10:20.833Z,243.94
2023-06-14T05:11:20.809Z,244.60
2023-06-14T05:12:20.813Z,247.08
2023-06-14T05:13:20.808Z,242.91
2023-06-14T05:14:20.790Z,244.08
2023-06-14T05:15:20.791Z,239.00
2023-06-14T05:16:20.835Z,241.49
2023-06-14T05:17:20.807Z,241.33
2023-06-14T05:18:20.777Z,244.52
2023-06-14T05:19:20.764Z,245.50
2023-06-14T05:20:20.745Z,242.97
2023-06-14T05:21:20.754Z,244.79
2023-06-14T05:22:20.745Z,249.51
2023-06-14T05:23:20.727Z,250.00
2023-06-14T05:24:20.749Z,243.15
2023-06-14T05:25:20.735Z,238.79
2023-06-14T05:26:20.737Z,247.77
2023-06-14T05:27:20.802Z,226.29
2023-06-14T05:28:20.702Z,211.04
2023-06-14T05:29:20.684Z,191.23
2023-06-14T05:30:20.688Z,175.95
2023-06-14T05:31:20.722Z,169.99
2023-06-14T05:32:20.672Z,163.50
2023-06-14T05:33:20.831Z,158.32
2023-06-14T05:34:20.657Z,155.00
2023-06-14T05:35:20.637Z,105.41
2023-06-14T05:36:20.637Z,88.72
2023-06-14T05:37:20.639Z,63.74
2023-06-14T05:38:20.631Z,40.25
2023-06-14T05:39:20.642Z,27.21
2023-06-14T05:40:20.633Z,25.00
2023-06-14T05:41:20.643Z,37.26
2023-06-14T05:42:20.591Z,48.70
2023-06-14T05:43:21.543Z,55.80
2023-06-14T05:44:20.597Z,89.67
2023-06-14T05:45:20.583Z,109.96
2023-06-14T05:46:20.647Z,127.65
2023-06-14T05:47:20.578Z,143.38
2023-06-14T05:48:20.597Z,155.82
2023-06-14T05:49:20.550Z,175.75
2023-06-14T05:50:20.567Z,193.16
2023-06-14T05:51:20.595Z,209.34
2023-06-14T05:52:20.555Z,218.61
2023-06-14T05:53:20.557Z,226.26
2023-06-14T05:54:20.516Z,220.67
2023-06-14T05:55:20.518Z,204.32
2023-06-14T05:56:20.513Z,209.45
2023-06-14T05:57:20.520Z,198.97
2023-06-14T05:58:20.508Z,221.32
2023-06-14T05:59:20.533Z,201.60
2023-06-14T06:00:20.518Z,193.36
2023-06-14T06:01:20.472Z,200.19
2023-06-14T06:02:20.595Z,189.69
2023-06-14T06:03:20.733Z,193.30
2023-06-14T06:04:20.726Z,185.76
2023-06-14T06:05:20.684Z,185.10
2023-06-14T06:06:20.735Z,185.69
2023-06-14T06:07:20.745Z,178.08
2023-06-14T06:08:20.786Z,174.93
2023-06-14T06:09:20.822Z,165.02
2023-06-14T06:10:20.877Z,167.17
2023-06-14T06:11:20.956Z,180.97
2023-06-14T06:12:20.977Z,178.93
2023-06-14T06:13:21.017Z,185.14
2023-06-14T06:14:21.066Z,185.70
2023-06-14T06:15:21.087Z,182.08
2023-06-14T06:16:21.191Z,172.24
2023-06-14T06:17:21.205Z,186.64
2023-06-14T06:18:21.288Z,179.89
2023-06-14T06:19:21.316Z,170.78
2023-06-14T06:20:21.307Z,187.05
2023-06-14T06:21:21.661Z,188.44
2023-06-14T06:22:21.644Z,168.00
2023-06-14T06:23:21.380Z,160.57
2023-06-14T06:24:21.449Z,160.18
2023-06-14T06:25:21.454Z,158.16
2023-06-14T06:26:21.474Z,172.14
2023-06-14T06:27:21.513Z,168.36
2023-06-14T06:28:21.560Z,176.66
2023-06-14T06:29:21.552Z,200.12
2023-06-14T06:30:21.615Z,199.83
2023-06-14T06:31:21.652Z,210.39
2023-06-14T06:32:21.654Z,194.83
2023-06-14T06:33:21.667Z,167.44
2023-06-14T06:34:21.658Z,191.17
2023-06-14T06:35:21.680Z,166.99
2023-06-14T06:36:21.713Z,160.37
2023-06-14T06:37:21.771Z,144.82
2023-06-14T06:38:21.755Z,138.63
2023-06-14T06:39:21.768Z,124.63
2023-06-14T06:40:21.850Z,127.02
2023-06-14T06:41:22.148Z,136.71
2023-06-14T06:42:21.870Z,147.86
2023-06-14T06:43:21.887Z,138.86
2023-06-14T06:44:21.922Z,153.42
2023-06-14T06:45:23.637Z,141.73
2023-06-14T06:46:22.183Z,128.59
2023-06-14T06:47:21.942Z,116.70
2023-06-14T06:48:21.963Z,128.50
2023-06-14T06:49:21.911Z,137.48
2023-06-14T06:50:21.903Z,118.73
2023-06-14T06:51:21.910Z,117.01
2023-06-14T06:52:21.899Z,119.71
2023-06-14T06:53:34.812Z,128.34
2023-06-14T06:54:22.869Z,128.50
2023-06-14T06:55:21.881Z,129.93
2023-06-14T06:56:21.870Z,128.78
2023-06-14T06:57:21.854Z,111.20
2023-06-14T06:58:21.863Z,104.79
2023-06-14T06:59:21.836Z,106.51
2023-06-14T07:00:21.854Z,119.22
2023-06-14T07:01:21.919Z,94.81
2023-06-14T07:02:21.917Z,78.30
2023-06-14T07:03:21.812Z,71.03
2023-06-14T07:04:21.839Z,64.12
2023-06-14T07:05:21.847Z,72.15
2023-06-14T07:06:21.817Z,82.72
2023-06-14T07:07:22.144Z,91.82
2023-06-14T07:08:21.777Z,106.01
2023-06-14T07:09:21.772Z,128.25
2023-06-14T07:10:21.763Z,137.79
2023-06-14T07:11:21.770Z,156.19
2023-06-14T07:12:21.790Z,142.96
2023-06-14T07:13:21.767Z,154.29
2023-06-14T07:14:21.749Z,179.33
2023-06-14T07:15:21.764Z,182.29
2023-06-14T07:16:21.763Z,179.75
2023-06-14T07:17:21.759Z,148.18
2023-06-14T07:18:21.728Z,141.91
2023-06-14T07:19:21.744Z,151.66
2023-06-14T07:20:21.757Z,138.81
2023-06-14T07:21:21.737Z,145.86
2023-06-14T07:22:21.745Z,159.03
2023-06-14T07:23:21.760Z,116.39
2023-06-14T07:24:21.850Z,154.55
2023-06-14T07:25:21.754Z,172.35
2023-06-14T07:26:21.746Z,178.06
2023-06-14T07:27:22.155Z,175.65
2023-06-14T07:28:21.802Z,185.58
2023-06-14T07:29:21.844Z,193.95
2023-06-14T07:30:21.877Z,167.06
2023-06-14T07:31:21.866Z,101.22
2023-06-14T07:32:21.982Z,62.95
2023-06-14T07:33:22.029Z,26.13
2023-06-14T07:34:21.930Z,0.71
2023-06-14T07:35:21.955Z,0.00
2023-06-14T07:36:21.995Z,0.00
2023-06-14T07:37:22.048Z,0.00
2023-06-14T07:38:22.116Z,0.00
2023-06-14T07:39:22.097Z,0.00
2023-06-14T07:40:22.097Z,0.00
2023-06-14T07:41:23.113Z,0.00
2023-06-14T07:42:22.142Z,0.00
2023-06-14T07:43:23.005Z,2.32
2023-06-14T07:44:22.210Z,9.45
2023-06-14T07:45:22.277Z,17.05
2023-06-14T07:46:22.308Z,24.62
2023-06-14T07:47:22.483Z,25.00
2023-06-14T07:48:22.503Z,26.76
2023-06-14T07:49:22.504Z,25.73
2023-06-14T07:50:22.538Z,25.00
2023-06-14T07:51:22.583Z,24.33
2023-06-14T07:52:23.198Z,26.42
2023-06-14T07:53:22.706Z,23.61
2023-06-14T07:54:22.784Z,24.58
2023-06-14T07:55:22.841Z,25.13
2023-06-14T07:56:22.890Z,24.27
2023-06-14T07:57:23.161Z,25.26
2023-06-14T07:58:22.980Z,25.69
2023-06-14T07:59:23.019Z,25.81
2023-06-14T08:00:23.072Z,25.79
2023-06-14T08:01:23.116Z,25.22
2023-06-14T08:02:23.205Z,25.32
2023-06-14T08:03:23.292Z,26.33
2023-06-14T08:04:23.265Z,26.55
2023-06-14T08:05:23.330Z,27.57
2023-06-14T08:06:23.418Z,32.67
2023-06-14T08:07:23.468Z,27.96
2023-06-14T08:08:23.488Z,37.21
2023-06-14T08:09:23.543Z,45.98
2023-06-14T08:10:23.609Z,49.93
2023-06-14T08:11:23.657Z,54.45
2023-06-14T08:12:24.192Z,60.74
2023-06-14T08:13:23.740Z,61.71
2023-06-14T08:14:23.749Z,60.98
2023-06-14T08:15:23.767Z,58.46
2023-06-14T08:16:23.855Z,54.31
2023-06-14T08:17:24.202Z,50.64
2023-06-14T08:18:23.819Z,53.54
2023-06-14T08:19:23.824Z,56.75
2023-06-14T08:20:23.831Z,63.53
2023-06-14T08:21:23.848Z,64.98
2023-06-14T08:22:24.156Z,57.66
2023-06-14T08:23:23.862Z,61.16
2023-06-14T08:24:24.007Z,58.67
2023-06-14T08:25:23.881Z,58.23
2023-06-14T08:26:23.865Z,53.71
2023-06-14T08:27:23.886Z,50.66
2023-06-14T08:28:23.890Z,47.16
2023-06-14T08:29:23.869Z,38.15
2023-06-14T08:30:23.926Z,38.39
2023-06-14T08:31:23.861Z,37.72
2023-06-14T08:32:23.896Z,40.44
2023-06-14T08:33:23.955Z,36.75
2023-06-14T08:34:23.901Z,37.30
2023-06-14T08:35:24.018Z,34.01
2023-06-14T08:36:23.950Z,27.00
2023-06-14T08:37:24.170Z,27.26
2023-06-14T08:38:23.879Z,34.28
2023-06-14T08:39:23.904Z,29.26
2023-06-14T08:40:23.903Z,35.92
2023-06-14T08:41:23.892Z,26.69
2023-06-14T08:42:31.574Z,26.94
2023-06-14T08:43:24.889Z,26.96
2023-06-14T08:44:23.885Z,27.05
2023-06-14T08:45:26.656Z,29.46
2023-06-14T08:46:23.870Z,27.44
2023-06-14T08:47:23.889Z,30.25
2023-06-14T08:48:23.858Z,36.76
2023-06-14T08:49:23.854Z,44.03
2023-06-14T08:50:28.387Z,62.05
2023-06-14T08:51:24.834Z,28.14
2023-06-14T08:52:24.173Z,32.98
2023-06-14T08:53:23.829Z,43.37
2023-06-14T08:54:23.808Z,58.39
2023-06-14T08:55:23.826Z,76.91
2023-06-14T08:56:23.820Z,85.52
2023-06-14T08:57:23.788Z,89.15
2023-06-14T08:58:23.814Z,88.35
2023-06-14T08:59:23.792Z,100.99
2023-06-14T09:00:23.794Z,112.14
2023-06-14T09:01:23.831Z,110.17
2023-06-14T09:02:23.822Z,123.49
2023-06-14T09:03:23.792Z,122.23
2023-06-14T09:04:23.743Z,121.32
2023-06-14T09:05:23.746Z,111.74
2023-06-14T09:06:23.757Z,105.73
2023-06-14T09:07:23.721Z,111.87
2023-06-14T09:08:23.736Z,114.52
2023-06-14T09:09:23.749Z,117.98
2023-06-14T09:10:24.019Z,122.20
2023-06-14T09:11:23.762Z,122.01
2023-06-14T09:12:24.168Z,124.91
2023-06-14T09:13:23.746Z,120.58
2023-06-14T09:14:23.754Z,116.83
2023-06-14T09:15:23.759Z,107.55
2023-06-14T09:16:23.808Z,87.79
2023-06-14T09:17:24.166Z,82.29
2023-06-14T09:18:23.776Z,78.59
2023-06-14T09:19:23.799Z,70.12
2023-06-14T09:20:23.841Z,72.62
2023-06-14T09:21:23.838Z,62.27
2023-06-14T09:22:23.868Z,55.92
2023-06-14T09:23:23.928Z,55.08
2023-06-14T09:24:23.989Z,52.59
2023-06-14T09:25:37.978Z,37.93
2023-06-14T09:26:24.960Z,30.74
2023-06-14T09:27:24.195Z,27.94
2023-06-14T09:28:23.984Z,17.32
2023-06-14T09:29:23.973Z,14.27
2023-06-14T09:30:23.949Z,12.71
2023-06-14T09:31:24.011Z,21.01
2023-06-14T09:32:24.237Z,22.87
2023-06-14T09:33:23.953Z,25.03
2023-06-14T09:34:23.931Z,24.90
2023-06-14T09:35:23.923Z,24.81
2023-06-14T09:36:23.980Z,23.24
2023-06-14T09:37:23.953Z,25.00
2023-06-14T09:38:23.994Z,25.80
2023-06-14T09:39:24.065Z,26.03
2023-06-14T09:40:24.118Z,24.02
2023-06-14T09:41:24.175Z,26.52
2023-06-14T09:42:24.728Z,24.57
2023-06-14T09:43:24.283Z,27.78
2023-06-14T09:44:24.349Z,29.75
2023-06-14T09:45:24.404Z,28.20
2023-06-14T09:46:24.443Z,24.89
2023-06-14T09:47:24.704Z,25.45
2023-06-14T09:48:24.655Z,27.58
2023-06-14T09:49:24.710Z,27.15
2023-06-14T09:50:24.660Z,23.82
2023-06-14T09:51:24.701Z,27.90
2023-06-14T09:52:24.790Z,26.74
2023-06-14T09:53:24.802Z,27.54
2023-06-14T09:54:24.871Z,28.14
2023-06-14T09:55:24.938Z,24.71
2023-06-14T09:56:25.000Z,26.84
2023-06-14T09:57:25.180Z,28.73
2023-06-14T09:58:25.091Z,27.61
2023-06-14T09:59:25.153Z,25.63
2023-06-14T10:00:25.183Z,25.78
2023-06-14T10:01:25.296Z,26.83
2023-06-14T10:02:25.310Z,25.42
2023-06-14T10:03:25.658Z,25.00
2023-06-14T10:04:25.327Z,24.69
2023-06-14T10:05:25.379Z,28.77
2023-06-14T10:06:25.368Z,34.30
2023-06-14T10:07:25.369Z,29.05
2023-06-14T10:08:25.401Z,28.61
2023-06-14T10:09:25.446Z,27.31
2023-06-14T10:10:25.453Z,33.45
2023-06-14T10:11:25.481Z,28.98
2023-06-14T10:12:25.686Z,27.74
2023-06-14T10:13:25.539Z,29.00
2023-06-14T10:14:25.532Z,26.77
2023-06-14T10:15:25.525Z,24.74
2023-06-14T10:16:25.585Z,27.93
2023-06-14T10:17:25.705Z,25.00
2023-06-14T10:18:25.603Z,25.37
2023-06-14T10:19:25.649Z,39.72
2023-06-14T10:20:25.666Z,43.61
2023-06-14T10:21:27.613Z,48.55
2023-06-14T10:22:26.167Z,63.14
2023-06-14T10:23:25.864Z,61.65
2023-06-14T10:24:25.945Z,75.05
2023-06-14T10:25:25.975Z,77.36
2023-06-14T10:26:26.086Z,87.30
2023-06-14T10:27:26.237Z,91.77
2023-06-14T10:28:26.179Z,91.89
2023-06-14T10:29:26.193Z,104.62
2023-06-14T10:30:26.212Z,109.37
2023-06-14T10:31:26.305Z,110.45
2023-06-14T10:32:26.410Z,112.06
2023-06-14T10:33:26.364Z,119.40
2023-06-14T10:34:26.431Z,123.33
2023-06-14T10:35:26.476Z,128.65
2023-06-14T10:36:26.496Z,121.38
2023-06-14T10:37:26.550Z,129.77
2023-06-14T10:38:26.577Z,135.18
2023-06-14T10:39:26.648Z,145.39
2023-06-14T10:40:26.677Z,147.47
2023-06-14T10:41:26.698Z,155.54
2023-06-14T10:42:26.749Z,158.56
2023-06-14T10:43:26.807Z,161.13
2023-06-14T10:44:26.831Z,166.06
2023-06-14T10:45:26.902Z,172.49
2023-06-14T10:46:27.039Z,178.96
2023-06-14T10:47:27.035Z,182.96
2023-06-14T10:48:26.989Z,186.15
2023-06-14T10:49:27.014Z,192.16
2023-06-14T10:50:27.058Z,196.24
2023-06-14T10:51:27.098Z,198.13
2023-06-14T10:52:27.143Z,195.61
2023-06-14T10:53:27.304Z,195.97
2023-06-14T10:54:27.232Z,200.75
2023-06-14T10:55:27.283Z,202.11
2023-06-14T10:56:27.315Z,201.61
2023-06-14T10:57:27.667Z,204.59
2023-06-14T10:58:27.361Z,195.01
2023-06-14T10:59:27.410Z,184.18
2023-06-14T11:00:28.012Z,175.53
2023-06-14T11:01:27.524Z,175.26
2023-06-14T11:02:27.662Z,176.44
2023-06-14T11:03:27.566Z,179.41
2023-06-14T11:04:27.544Z,177.33
2023-06-14T11:05:27.597Z,178.27
2023-06-14T11:06:27.599Z,183.64
2023-06-14T11:07:27.632Z,181.40
2023-06-14T11:08:27.681Z,180.98
2023-06-14T11:09:27.694Z,186.58
2023-06-14T11:10:27.759Z,187.02
2023-06-14T11:11:27.776Z,191.09
2023-06-14T11:12:28.167Z,193.01
2023-06-14T11:13:28.413Z,193.72
2023-06-14T11:14:27.860Z,201.82
2023-06-14T11:15:27.932Z,206.61
2023-06-14T11:16:27.941Z,209.94
2023-06-14T11:17:28.205Z,209.27
2023-06-14T11:18:27.957Z,208.62
2023-06-14T11:19:27.959Z,208.21
2023-06-14T11:20:28.895Z,210.16
2023-06-14T11:21:28.179Z,213.09
2023-06-14T11:22:28.181Z,215.97
2023-06-14T11:23:28.045Z,214.87
2023-06-14T11:24:28.183Z,218.30
2023-06-14T11:25:28.116Z,221.50
2023-06-14T11:26:28.112Z,223.42
2023-06-14T11:27:28.134Z,224.11
2023-06-14T11:28:28.174Z,226.50
2023-06-14T11:29:28.194Z,230.29
2023-06-14T11:30:28.224Z,230.26
2023-06-14T11:31:28.325Z,231.62
2023-06-14T11:32:28.283Z,231.80
2023-06-14T11:33:28.276Z,231.75
2023-06-14T11:34:28.301Z,231.66
2023-06-14T11:35:28.319Z,231.31
2023-06-14T11:36:28.323Z,232.11
2023-06-14T11:37:28.359Z,233.98
2023-06-14T11:38:28.376Z,233.71
2023-06-14T11:39:28.369Z,234.39
2023-06-14T11:40:28.393Z,234.50
2023-06-14T11:41:28.417Z,235.26
2023-06-14T11:42:28.447Z,237.92
2023-06-14T11:43:28.468Z,238.40
2023-06-14T11:44:28.479Z,238.31
2023-06-14T11:45:28.484Z,239.15
2023-06-14T11:46:28.525Z,239.29
2023-06-14T11:47:28.594Z,238.36
2023-06-14T11:48:28.536Z,238.34
2023-06-14T11:49:28.569Z,239.81
2023-06-14T11:50:28.613Z,241.19
2023-06-14T11:51:28.612Z,242.93
2023-06-14T11:52:28.638Z,245.78
2023-06-14T11:53:28.640Z,246.76
2023-06-14T11:54:28.661Z,247.33
2023-06-14T11:55:28.693Z,246.17
2023-06-14T11:56:28.690Z,244.75
2023-06-14T11:57:28.910Z,246.40
2023-06-14T11:58:28.741Z,247.99
2023-06-14T11:59:28.765Z,246.73
2023-06-14T12:00:28.810Z,246.91
2023-06-14T12:01:28.817Z,246.35
2023-06-14T12:02:28.873Z,247.07
2023-06-14T12:03:28.911Z,248.19
2023-06-14T12:04:28.858Z,250.00
2023-06-14T12:05:28.883Z,249.88
2023-06-14T12:06:28.877Z,247.95
2023-06-14T12:07:28.874Z,247.43
2023-06-14T12:08:28.905Z,249.80
2023-06-14T12:09:28.903Z,247.99
2023-06-14T12:10:28.944Z,246.59
2023-06-14T12:11:28.966Z,247.64
2023-06-14T12:12:29.185Z,247.38
2023-06-14T12:13:28.973Z,246.89
2023-06-14T12:14:28.986Z,248.42
2023-06-14T12:15:29.009Z,249.26
2023-06-14T12:16:29.052Z,246.22
2023-06-14T12:17:29.206Z,245.40
2023-06-14T12:18:29.068Z,247.04
2023-06-14T12:19:29.085Z,247.08
2023-06-14T12:20:29.108Z,250.00
2023-06-14T12:21:29.109Z,248.57
2023-06-14T12:22:29.200Z,248.52
2023-06-14T12:23:29.122Z,245.53
2023-06-14T12:24:29.308Z,247.37
2023-06-14T12:25:29.166Z,247.77
2023-06-14T12:26:29.183Z,245.79
2023-06-14T12:27:29.198Z,244.17
2023-06-14T12:28:29.213Z,244.01
2023-06-14T12:29:29.229Z,244.51
2023-06-14T12:30:29.235Z,243.76
2023-06-14T12:31:29.268Z,241.11
2023-06-14T12:32:29.415Z,240.69
2023-06-14T12:33:29.336Z,241.35
2023-06-14T12:34:29.323Z,240.66
2023-06-14T12:35:29.342Z,242.56
2023-06-14T12:36:29.340Z,242.29